Flight Track Log - Related Links

Times and Time Zones

All times are in EDT time to prevent confusion due to time zone crossing. See the N1207C flight status page for this flight to view local times or setup timezone preferences in your user account.

Time Position Orientation Groundspeed Altitude Reporting Facility
EDT Latitude Longitude Course Direction KTS MPH feet Rate Location/Type
Sat 08:12:10 AM 39.2167 -76.6833 343° North 103 119 2,200  Level Potomac TRACON
Sat 08:12:58 AM 39.2333 -76.7000 322° Northwest 86 99 3,200 991 Climbing Potomac TRACON
Sat 08:14:05 AM 39.2667 -76.7000 360° North 132 152 4,100 364 Climbing Potomac TRACON
Sat 08:15:10 AM 39.3167 -76.7167 346° North 159 183 4,000 -50 Descending Potomac TRACON
Sat 08:16:04 AM 39.3500 -76.7000 21° North 166 191 4,000  Level Potomac TRACON
Sat 08:17:00 AM 39.3594 -76.6279 North  Level FlightAware Approximate
Sat 08:17:04 AM 39.4000 -76.6833 14° North 165 190 4,000  Level Potomac TRACON
Sat 08:18:48 AM 39.4706 -76.6417 25° Northeast 167 192 4,000  Level New York Center
Sat 08:19:50 AM 39.5175 -76.6169 22° Northeast 168 193 4,000  Level New York Center
Sat 08:20:51 AM 39.5608 -76.5947 22° Northeast 168 193 4,000  Level New York Center
Sat 08:21:53 AM 39.6019 -76.5731 22° Northeast 163 188 4,000  Level New York Center
Sat 08:22:55 AM 39.6486 -76.5492 22° Northeast 164 189 4,000  Level New York Center
Sat 08:23:56 AM 39.6894 -76.5267 23° Northeast 164 189 4,000  Level New York Center
Sat 08:24:58 AM 39.7297 -76.5067 21° North 159 183 4,000  Level New York Center
Sat 08:25:59 AM 39.7722 -76.4825 24° Northeast 155 178 4,000  Level New York Center
Sat 08:27:01 AM 39.8150 -76.4603 22° Northeast 161 185 4,000  Level New York Center
Sat 08:28:03 AM 39.8628 -76.4347 22° Northeast 171 197 4,000  Level New York Center
Sat 08:29:04 AM 39.9025 -76.4142 22° Northeast 171 197 4,000  Level New York Center
Sat 08:30:06 AM 39.9483 -76.3894 22° Northeast 158 182 4,000 -195 Level New York Center
Sat 08:31:07 AM 39.9875 -76.3669 24° Northeast 158 182 3,600 -585 Descending New York Center
Sat 08:32:09 AM 40.0239 -76.3236 42° Northeast 169 194 2,800 -726 Descending New York Center
Sat 08:33:11 AM 40.0539 -76.2786 49° Northeast 163 188 2,100 -439 Descending New York Center
Sat 08:34:12 AM 40.0833 -76.2372 47° Northeast 162 186 1,900 -197 Descending New York Center
Sat 08:36:00 AM 40.1167 -76.2833 37° Northeast  Level FlightAware Approximate
Sat 08:43:00 AM 40.1224 -76.2944 37° Northeast  Level Estimated
Sat 08:44:00 AM 40.1224 -76.2944 124° Southeast  Level Estimated

Login

Don't have an account? Register now (free) for customized features, flight alerts, and more!